sensor_id;sensor_type;location;lat;lon;timestamp;P1;durP1;ratioP1;P2;durP2;ratioP2
23498;SDS011;11926;48.120;11.562;2023-04-15T00:01:15;10.65;;;3.40;;
23498;SDS011;11926;48.120;11.562;2023-04-15T00:04:03;11.93;;;4.18;;
23498;SDS011;11926;48.120;11.562;2023-04-15T00:06:50;9.55;;;3.35;;
23498;SDS011;11926;48.120;11.562;2023-04-15T00:09:39;10.07;;;3.55;;
23498;SDS011;11926;48.120;11.562;2023-04-15T00:12:27;8.43;;;4.05;;
23498;SDS011;11926;48.120;11.562;2023-04-15T00:15:14;8.50;;;3.70;;
23498;SDS011;11926;48.120;11.562;2023-04-15T00:18:02;10.82;;;3.72;;
23498;SDS011;11926;48.120;11.562;2023-04-15T00:20:50;8.57;;;3.50;;
23498;SDS011;11926;48.120;11.562;2023-04-15T00:23:37;8.50;;;4.15;;
23498;SDS011;11926;48.120;11.562;2023-04-15T00:26:24;6.40;;;3.63;;
23498;SDS011;11926;48.120;11.562;2023-04-15T00:29:13;17.50;;;4.95;;
23498;SDS011;11926;48.120;11.562;2023-04-15T00:32:01;10.57;;;4.88;;
23498;SDS011;11926;48.120;11.562;2023-04-15T00:34:49;17.35;;;5.70;;
23498;SDS011;11926;48.120;11.562;2023-04-15T00:37:36;13.10;;;4.72;;
23498;SDS011;11926;48.120;11.562;2023-04-15T00:40:23;13.70;;;4.30;;
23498;SDS011;11926;48.120;11.562;2023-04-15T00:43:12;13.18;;;4.97;;
23498;SDS011;11926;48.120;11.562;2023-04-15T00:46:03;11.63;;;4.25;;
23498;SDS011;11926;48.120;11.562;2023-04-15T00:48:51;13.13;;;4.97;;
23498;SDS011;11926;48.120;11.562;2023-04-15T00:51:41;15.73;;;4.43;;
23498;SDS011;11926;48.120;11.562;2023-04-15T00:54:29;14.90;;;5.40;;
23498;SDS011;11926;48.120;11.562;2023-04-15T00:57:16;11.98;;;4.65;;
23498;SDS011;11926;48.120;11.562;2023-04-15T01:00:04;15.68;;;6.13;;
23498;SDS011;11926;48.120;11.562;2023-04-15T01:02:53;16.17;;;6.18;;
23498;SDS011;11926;48.120;11.562;2023-04-15T01:05:41;18.65;;;7.05;;
23498;SDS011;11926;48.120;11.562;2023-04-15T01:08:30;16.60;;;7.10;;
23498;SDS011;11926;48.120;11.562;2023-04-15T01:11:17;14.32;;;4.97;;
23498;SDS011;11926;48.120;11.562;2023-04-15T01:14:05;13.75;;;5.88;;
23498;SDS011;11926;48.120;11.562;2023-04-15T01:16:53;16.73;;;5.90;;
23498;SDS011;11926;48.120;11.562;2023-04-15T01:19:41;16.70;;;6.45;;
23498;SDS011;11926;48.120;11.562;2023-04-15T01:22:28;15.60;;;7.15;;
23498;SDS011;11926;48.120;11.562;2023-04-15T01:25:18;15.98;;;6.30;;
23498;SDS011;11926;48.120;11.562;2023-04-15T01:28:16;14.93;;;5.60;;
23498;SDS011;11926;48.120;11.562;2023-04-15T01:31:05;14.30;;;6.30;;
23498;SDS011;11926;48.120;11.562;2023-04-15T01:33:55;13.98;;;5.72;;
23498;SDS011;11926;48.120;11.562;2023-04-15T01:36:41;10.88;;;5.70;;
23498;SDS011;11926;48.120;11.562;2023-04-15T01:39:29;14.93;;;5.50;;
23498;SDS011;11926;48.120;11.562;2023-04-15T01:42:17;13.73;;;4.55;;
23498;SDS011;11926;48.120;11.562;2023-04-15T01:45:07;12.43;;;4.55;;
23498;SDS011;11926;48.120;11.562;2023-04-15T01:47:55;13.35;;;5.80;;
23498;SDS011;11926;48.120;11.562;2023-04-15T01:50:43;12.00;;;5.07;;
23498;SDS011;11926;48.120;11.562;2023-04-15T01:53:31;9.20;;;5.07;;
23498;SDS011;11926;48.120;11.562;2023-04-15T01:56:20;13.48;;;6.18;;
23498;SDS011;11926;48.120;11.562;2023-04-15T01:59:09;13.82;;;6.68;;
23498;SDS011;11926;48.120;11.562;2023-04-15T02:01:56;16.10;;;5.95;;
23498;SDS011;11926;48.120;11.562;2023-04-15T02:04:44;16.92;;;7.53;;
23498;SDS011;11926;48.120;11.562;2023-04-15T02:07:34;13.57;;;5.30;;
23498;SDS011;11926;48.120;11.562;2023-04-15T02:10:21;12.50;;;4.80;;
23498;SDS011;11926;48.120;11.562;2023-04-15T02:13:08;10.23;;;5.13;;
23498;SDS011;11926;48.120;11.562;2023-04-15T02:15:56;8.38;;;4.57;;
23498;SDS011;11926;48.120;11.562;2023-04-15T02:18:44;9.07;;;4.53;;
23498;SDS011;11926;48.120;11.562;2023-04-15T02:21:32;8.05;;;4.50;;
23498;SDS011;11926;48.120;11.562;2023-04-15T02:24:20;7.35;;;4.50;;
23498;SDS011;11926;48.120;11.562;2023-04-15T02:27:07;10.98;;;5.05;;
23498;SDS011;11926;48.120;11.562;2023-04-15T02:29:54;12.15;;;4.38;;
23498;SDS011;11926;48.120;11.562;2023-04-15T02:32:43;13.45;;;5.00;;
23498;SDS011;11926;48.120;11.562;2023-04-15T02:35:30;7.93;;;4.38;;
23498;SDS011;11926;48.120;11.562;2023-04-15T02:38:18;10.82;;;5.32;;
23498;SDS011;11926;48.120;11.562;2023-04-15T02:41:05;10.25;;;4.80;;
23498;SDS011;11926;48.120;11.562;2023-04-15T02:43:52;12.98;;;5.20;;
23498;SDS011;11926;48.120;11.562;2023-04-15T02:46:40;11.68;;;5.47;;
23498;SDS011;11926;48.120;11.562;2023-04-15T02:49:28;11.48;;;4.95;;
23498;SDS011;11926;48.120;11.562;2023-04-15T02:52:15;15.20;;;6.88;;
23498;SDS011;11926;48.120;11.562;2023-04-15T02:55:02;14.80;;;7.55;;
23498;SDS011;11926;48.120;11.562;2023-04-15T02:57:51;15.57;;;7.20;;
23498;SDS011;11926;48.120;11.562;2023-04-15T03:00:38;14.32;;;5.82;;
23498;SDS011;11926;48.120;11.562;2023-04-15T03:03:25;13.75;;;5.43;;
23498;SDS011;11926;48.120;11.562;2023-04-15T03:06:14;14.52;;;6.07;;
23498;SDS011;11926;48.120;11.562;2023-04-15T03:09:01;16.85;;;6.30;;
23498;SDS011;11926;48.120;11.562;2023-04-15T03:11:52;17.30;;;6.03;;
23498;SDS011;11926;48.120;11.562;2023-04-15T03:14:40;15.02;;;6.63;;
23498;SDS011;11926;48.120;11.562;2023-04-15T03:17:27;18.45;;;7.05;;
23498;SDS011;11926;48.120;11.562;2023-04-15T03:20:14;17.20;;;7.13;;
23498;SDS011;11926;48.120;11.562;2023-04-15T03:23:02;17.65;;;6.72;;
23498;SDS011;11926;48.120;11.562;2023-04-15T03:25:50;17.73;;;6.18;;
23498;SDS011;11926;48.120;11.562;2023-04-15T03:28:41;18.35;;;6.47;;
23498;SDS011;11926;48.120;11.562;2023-04-15T03:31:31;16.50;;;5.88;;
23498;SDS011;11926;48.120;11.562;2023-04-15T03:34:18;24.60;;;5.63;;
23498;SDS011;11926;48.120;11.562;2023-04-15T03:37:05;13.48;;;6.13;;
23498;SDS011;11926;48.120;11.562;2023-04-15T03:39:54;14.90;;;6.70;;
23498;SDS011;11926;48.120;11.562;2023-04-15T03:42:41;19.63;;;7.45;;
23498;SDS011;11926;48.120;11.562;2023-04-15T03:45:28;10.35;;;4.93;;
23498;SDS011;11926;48.120;11.562;2023-04-15T03:48:15;17.25;;;6.68;;
23498;SDS011;11926;48.120;11.562;2023-04-15T03:51:03;13.40;;;6.07;;
23498;SDS011;11926;48.120;11.562;2023-04-15T03:53:51;16.38;;;5.38;;
23498;SDS011;11926;48.120;11.562;2023-04-15T03:56:39;17.45;;;6.60;;
23498;SDS011;11926;48.120;11.562;2023-04-15T03:59:26;17.17;;;7.28;;
23498;SDS011;11926;48.120;11.562;2023-04-15T04:02:13;18.30;;;6.32;;
23498;SDS011;11926;48.120;11.562;2023-04-15T04:05:01;16.08;;;6.88;;
23498;SDS011;11926;48.120;11.562;2023-04-15T04:07:48;14.13;;;5.15;;
23498;SDS011;11926;48.120;11.562;2023-04-15T04:10:35;13.88;;;4.72;;
23498;SDS011;11926;48.120;11.562;2023-04-15T04:13:24;16.17;;;4.75;;
23498;SDS011;11926;48.120;11.562;2023-04-15T04:16:11;14.23;;;4.30;;
23498;SDS011;11926;48.120;11.562;2023-04-15T04:18:57;13.32;;;4.82;;
23498;SDS011;11926;48.120;11.562;2023-04-15T04:21:45;14.93;;;4.32;;
23498;SDS011;11926;48.120;11.562;2023-04-15T04:24:33;14.63;;;3.80;;
23498;SDS011;11926;48.120;11.562;2023-04-15T04:27:20;11.20;;;3.70;;
23498;SDS011;11926;48.120;11.562;2023-04-15T04:30:08;14.70;;;4.60;;
23498;SDS011;11926;48.120;11.562;2023-04-15T04:32:55;11.90;;;3.80;;
23498;SDS011;11926;48.120;11.562;2023-04-15T04:35:42;7.93;;;3.45;;
23498;SDS011;11926;48.120;11.562;2023-04-15T04:38:29;11.13;;;3.50;;
23498;SDS011;11926;48.120;11.562;2023-04-15T04:41:17;5.90;;;3.22;;
23498;SDS011;11926;48.120;11.562;2023-04-15T04:44:04;10.98;;;3.25;;
23498;SDS011;11926;48.120;11.562;2023-04-15T04:46:52;10.77;;;3.38;;
23498;SDS011;11926;48.120;11.562;2023-04-15T04:49:39;10.90;;;3.78;;
23498;SDS011;11926;48.120;11.562;2023-04-15T04:52:26;8.05;;;2.92;;
23498;SDS011;11926;48.120;11.562;2023-04-15T04:55:13;8.73;;;3.20;;
23498;SDS011;11926;48.120;11.562;2023-04-15T04:58:00;4.85;;;2.55;;
23498;SDS011;11926;48.120;11.562;2023-04-15T05:00:47;9.00;;;2.92;;
23498;SDS011;11926;48.120;11.562;2023-04-15T05:03:36;9.48;;;2.90;;
23498;SDS011;11926;48.120;11.562;2023-04-15T05:06:23;8.32;;;3.15;;
23498;SDS011;11926;48.120;11.562;2023-04-15T05:09:10;10.43;;;3.45;;
23498;SDS011;11926;48.120;11.562;2023-04-15T05:11:57;9.98;;;2.85;;
23498;SDS011;11926;48.120;11.562;2023-04-15T05:14:45;8.68;;;2.85;;
23498;SDS011;11926;48.120;11.562;2023-04-15T05:17:32;7.93;;;2.80;;
23498;SDS011;11926;48.120;11.562;2023-04-15T05:20:22;7.43;;;2.50;;
23498;SDS011;11926;48.120;11.562;2023-04-15T05:23:09;6.80;;;2.75;;
23498;SDS011;11926;48.120;11.562;2023-04-15T05:25:56;4.22;;;2.20;;
23498;SDS011;11926;48.120;11.562;2023-04-15T05:28:43;7.10;;;2.90;;
23498;SDS011;11926;48.120;11.562;2023-04-15T05:31:30;13.80;;;2.75;;
23498;SDS011;11926;48.120;11.562;2023-04-15T05:34:17;4.72;;;2.20;;
23498;SDS011;11926;48.120;11.562;2023-04-15T05:37:06;5.50;;;2.47;;
23498;SDS011;11926;48.120;11.562;2023-04-15T05:39:53;10.45;;;2.35;;
23498;SDS011;11926;48.120;11.562;2023-04-15T05:42:43;6.35;;;2.28;;
23498;SDS011;11926;48.120;11.562;2023-04-15T05:45:30;5.80;;;2.25;;
23498;SDS011;11926;48.120;11.562;2023-04-15T05:48:18;9.85;;;2.67;;
23498;SDS011;11926;48.120;11.562;2023-04-15T05:51:06;6.15;;;2.10;;
23498;SDS011;11926;48.120;11.562;2023-04-15T05:53:55;10.43;;;2.25;;
23498;SDS011;11926;48.120;11.562;2023-04-15T05:56:42;4.88;;;1.75;;
23498;SDS011;11926;48.120;11.562;2023-04-15T05:59:29;4.93;;;1.95;;
23498;SDS011;11926;48.120;11.562;2023-04-15T06:02:17;5.07;;;1.67;;
23498;SDS011;11926;48.120;11.562;2023-04-15T06:05:05;8.10;;;2.92;;
23498;SDS011;11926;48.120;11.562;2023-04-15T06:07:55;4.68;;;1.75;;
23498;SDS011;11926;48.120;11.562;2023-04-15T06:10:45;4.57;;;1.88;;
23498;SDS011;11926;48.120;11.562;2023-04-15T06:13:32;6.18;;;1.60;;
23498;SDS011;11926;48.120;11.562;2023-04-15T06:16:20;5.40;;;1.98;;
23498;SDS011;11926;48.120;11.562;2023-04-15T06:19:08;6.70;;;2.20;;
23498;SDS011;11926;48.120;11.562;2023-04-15T06:21:57;5.45;;;1.83;;
23498;SDS011;11926;48.120;11.562;2023-04-15T06:24:44;5.05;;;1.83;;
23498;SDS011;11926;48.120;11.562;2023-04-15T06:27:36;7.70;;;1.75;;
23498;SDS011;11926;48.120;11.562;2023-04-15T06:30:26;6.00;;;1.98;;
23498;SDS011;11926;48.120;11.562;2023-04-15T06:33:14;6.70;;;1.80;;
23498;SDS011;11926;48.120;11.562;2023-04-15T06:36:01;5.53;;;1.65;;
23498;SDS011;11926;48.120;11.562;2023-04-15T06:38:52;6.70;;;2.10;;
23498;SDS011;11926;48.120;11.562;2023-04-15T06:41:41;7.28;;;1.65;;
23498;SDS011;11926;48.120;11.562;2023-04-15T06:44:31;6.03;;;1.88;;
23498;SDS011;11926;48.120;11.562;2023-04-15T06:47:19;6.47;;;1.65;;
23498;SDS011;11926;48.120;11.562;2023-04-15T06:50:09;4.97;;;2.10;;
23498;SDS011;11926;48.120;11.562;2023-04-15T06:52:56;3.35;;;1.40;;
23498;SDS011;11926;48.120;11.562;2023-04-15T06:55:44;7.20;;;2.10;;
23498;SDS011;11926;48.120;11.562;2023-04-15T06:58:32;6.93;;;1.77;;
23498;SDS011;11926;48.120;11.562;2023-04-15T07:01:21;5.47;;;1.52;;
23498;SDS011;11926;48.120;11.562;2023-04-15T07:04:11;6.35;;;1.73;;
23498;SDS011;11926;48.120;11.562;2023-04-15T07:06:59;4.05;;;1.73;;
23498;SDS011;11926;48.120;11.562;2023-04-15T07:09:47;4.20;;;1.70;;
23498;SDS011;11926;48.120;11.562;2023-04-15T07:12:35;5.68;;;2.17;;
23498;SDS011;11926;48.120;11.562;2023-04-15T07:15:23;6.53;;;1.83;;
23498;SDS011;11926;48.120;11.562;2023-04-15T07:18:12;5.75;;;1.73;;
23498;SDS011;11926;48.120;11.562;2023-04-15T07:21:00;5.82;;;1.60;;
23498;SDS011;11926;48.120;11.562;2023-04-15T07:23:47;3.38;;;1.77;;
23498;SDS011;11926;48.120;11.562;2023-04-15T07:26:35;4.28;;;1.67;;
23498;SDS011;11926;48.120;11.562;2023-04-15T07:29:23;5.55;;;1.45;;
23498;SDS011;11926;48.120;11.562;2023-04-15T07:32:10;4.22;;;1.50;;
23498;SDS011;11926;48.120;11.562;2023-04-15T07:34:59;3.15;;;1.20;;
23498;SDS011;11926;48.120;11.562;2023-04-15T07:37:47;6.03;;;1.92;;
23498;SDS011;11926;48.120;11.562;2023-04-15T07:40:36;5.35;;;1.40;;
23498;SDS011;11926;48.120;11.562;2023-04-15T07:43:24;5.38;;;1.50;;
23498;SDS011;11926;48.120;11.562;2023-04-15T07:46:12;6.05;;;1.95;;
23498;SDS011;11926;48.120;11.562;2023-04-15T07:49:00;4.07;;;1.70;;
23498;SDS011;11926;48.120;11.562;2023-04-15T07:51:49;3.10;;;1.30;;
23498;SDS011;11926;48.120;11.562;2023-04-15T07:54:37;5.65;;;1.50;;
23498;SDS011;11926;48.120;11.562;2023-04-15T08:00:34;6.88;;;1.35;;
23498;SDS011;11926;48.120;11.562;2023-04-15T08:03:22;4.25;;;1.95;;
23498;SDS011;11926;48.120;11.562;2023-04-15T08:06:16;4.93;;;1.60;;
23498;SDS011;11926;48.120;11.562;2023-04-15T08:09:05;5.65;;;1.30;;
23498;SDS011;11926;48.120;11.562;2023-04-15T08:11:56;5.70;;;1.85;;
23498;SDS011;11926;48.120;11.562;2023-04-15T08:14:44;5.35;;;1.50;;
23498;SDS011;11926;48.120;11.562;2023-04-15T08:17:33;6.05;;;1.58;;
23498;SDS011;11926;48.120;11.562;2023-04-15T08:20:21;4.70;;;1.83;;
23498;SDS011;11926;48.120;11.562;2023-04-15T08:23:10;5.90;;;1.60;;
23498;SDS011;11926;48.120;11.562;2023-04-15T08:25:59;6.10;;;1.67;;
23498;SDS011;11926;48.120;11.562;2023-04-15T08:28:49;4.28;;;1.35;;
23498;SDS011;11926;48.120;11.562;2023-04-15T08:31:37;6.25;;;2.13;;
23498;SDS011;11926;48.120;11.562;2023-04-15T08:34:25;4.45;;;1.40;;
23498;SDS011;11926;48.120;11.562;2023-04-15T08:37:12;3.75;;;1.50;;
23498;SDS011;11926;48.120;11.562;2023-04-15T08:40:03;7.07;;;1.70;;
23498;SDS011;11926;48.120;11.562;2023-04-15T08:42:54;5.07;;;1.50;;
23498;SDS011;11926;48.120;11.562;2023-04-15T08:45:44;8.38;;;1.98;;
23498;SDS011;11926;48.120;11.562;2023-04-15T08:48:33;5.40;;;1.92;;
23498;SDS011;11926;48.120;11.562;2023-04-15T08:51:25;4.18;;;1.83;;
23498;SDS011;11926;48.120;11.562;2023-04-15T08:54:13;4.22;;;1.73;;
23498;SDS011;11926;48.120;11.562;2023-04-15T08:57:00;3.88;;;2.00;;
23498;SDS011;11926;48.120;11.562;2023-04-15T08:59:50;12.65;;;7.43;;
23498;SDS011;11926;48.120;11.562;2023-04-15T09:02:40;6.22;;;3.80;;
23498;SDS011;11926;48.120;11.562;2023-04-15T09:05:30;5.22;;;2.47;;
23498;SDS011;11926;48.120;11.562;2023-04-15T09:08:19;10.40;;;3.60;;
23498;SDS011;11926;48.120;11.562;2023-04-15T09:11:09;6.15;;;2.17;;
23498;SDS011;11926;48.120;11.562;2023-04-15T09:13:57;4.70;;;2.00;;
23498;SDS011;11926;48.120;11.562;2023-04-15T09:19:50;5.32;;;1.98;;
23498;SDS011;11926;48.120;11.562;2023-04-15T09:22:57;9.95;;;2.72;;
23498;SDS011;11926;48.120;11.562;2023-04-15T09:25:57;9.50;;;2.40;;
23498;SDS011;11926;48.120;11.562;2023-04-15T09:28:49;4.38;;;2.05;;
23498;SDS011;11926;48.120;11.562;2023-04-15T09:31:37;5.47;;;2.40;;
23498;SDS011;11926;48.120;11.562;2023-04-15T09:34:35;4.78;;;2.53;;
23498;SDS011;11926;48.120;11.562;2023-04-15T09:37:33;5.70;;;2.70;;
23498;SDS011;11926;48.120;11.562;2023-04-15T09:40:31;4.18;;;2.28;;
23498;SDS011;11926;48.120;11.562;2023-04-15T09:43:19;4.95;;;2.30;;
23498;SDS011;11926;48.120;11.562;2023-04-15T09:46:07;5.20;;;2.58;;
23498;SDS011;11926;48.120;11.562;2023-04-15T09:49:06;6.22;;;2.70;;
23498;SDS011;11926;48.120;11.562;2023-04-15T09:51:58;6.85;;;2.75;;
23498;SDS011;11926;48.120;11.562;2023-04-15T09:54:52;5.38;;;2.72;;
23498;SDS011;11926;48.120;11.562;2023-04-15T09:57:40;5.63;;;2.72;;
23498;SDS011;11926;48.120;11.562;2023-04-15T10:00:28;6.47;;;3.20;;
23498;SDS011;11926;48.120;11.562;2023-04-15T10:03:19;6.75;;;2.70;;
23498;SDS011;11926;48.120;11.562;2023-04-15T10:06:07;9.55;;;3.00;;
23498;SDS011;11926;48.120;11.562;2023-04-15T10:08:59;4.63;;;2.65;;
23498;SDS011;11926;48.120;11.562;2023-04-15T10:11:47;5.18;;;3.22;;
23498;SDS011;11926;48.120;11.562;2023-04-15T10:14:36;7.60;;;3.00;;
23498;SDS011;11926;48.120;11.562;2023-04-15T10:17:26;8.32;;;3.50;;
23498;SDS011;11926;48.120;11.562;2023-04-15T10:20:19;6.38;;;3.30;;
23498;SDS011;11926;48.120;11.562;2023-04-15T10:23:08;8.23;;;3.40;;
23498;SDS011;11926;48.120;11.562;2023-04-15T10:26:02;7.50;;;2.83;;
23498;SDS011;11926;48.120;11.562;2023-04-15T10:28:51;6.82;;;2.80;;
23498;SDS011;11926;48.120;11.562;2023-04-15T10:31:39;5.93;;;3.33;;
23498;SDS011;11926;48.120;11.562;2023-04-15T10:34:27;6.70;;;3.70;;
23498;SDS011;11926;48.120;11.562;2023-04-15T10:37:19;8.52;;;3.45;;
23498;SDS011;11926;48.120;11.562;2023-04-15T10:40:22;6.63;;;3.20;;
23498;SDS011;11926;48.120;11.562;2023-04-15T10:43:23;8.68;;;5.82;;
23498;SDS011;11926;48.120;11.562;2023-04-15T10:46:12;6.20;;;3.65;;
23498;SDS011;11926;48.120;11.562;2023-04-15T10:49:06;6.10;;;3.08;;
23498;SDS011;11926;48.120;11.562;2023-04-15T10:51:56;6.80;;;3.45;;
23498;SDS011;11926;48.120;11.562;2023-04-15T10:54:48;8.70;;;4.28;;
23498;SDS011;11926;48.120;11.562;2023-04-15T10:57:36;8.38;;;3.67;;
23498;SDS011;11926;48.120;11.562;2023-04-15T11:00:29;5.25;;;3.45;;
23498;SDS011;11926;48.120;11.562;2023-04-15T11:03:33;5.50;;;3.70;;
23498;SDS011;11926;48.120;11.562;2023-04-15T11:06:30;8.05;;;3.45;;
23498;SDS011;11926;48.120;11.562;2023-04-15T11:09:31;7.90;;;3.80;;
23498;SDS011;11926;48.120;11.562;2023-04-15T11:12:20;8.27;;;3.67;;
23498;SDS011;11926;48.120;11.562;2023-04-15T11:18:19;7.80;;;3.67;;
23498;SDS011;11926;48.120;11.562;2023-04-15T11:21:07;7.13;;;3.60;;
23498;SDS011;11926;48.120;11.562;2023-04-15T11:23:55;7.07;;;3.60;;
23498;SDS011;11926;48.120;11.562;2023-04-15T11:26:41;8.20;;;4.05;;
23498;SDS011;11926;48.120;11.562;2023-04-15T11:29:29;7.05;;;3.95;;
23498;SDS011;11926;48.120;11.562;2023-04-15T11:32:18;10.23;;;4.70;;
23498;SDS011;11926;48.120;11.562;2023-04-15T11:35:06;10.18;;;4.45;;
23498;SDS011;11926;48.120;11.562;2023-04-15T11:37:53;7.95;;;4.22;;
23498;SDS011;11926;48.120;11.562;2023-04-15T11:40:41;5.45;;;4.00;;
23498;SDS011;11926;48.120;11.562;2023-04-15T11:43:31;6.07;;;4.15;;
23498;SDS011;11926;48.120;11.562;2023-04-15T11:46:20;7.35;;;4.32;;
23498;SDS011;11926;48.120;11.562;2023-04-15T11:49:12;8.30;;;5.05;;
23498;SDS011;11926;48.120;11.562;2023-04-15T11:52:15;7.35;;;4.35;;
23498;SDS011;11926;48.120;11.562;2023-04-15T11:55:06;7.93;;;4.18;;
23498;SDS011;11926;48.120;11.562;2023-04-15T12:01:00;8.75;;;4.00;;
23498;SDS011;11926;48.120;11.562;2023-04-15T12:03:52;6.03;;;3.60;;
23498;SDS011;11926;48.120;11.562;2023-04-15T12:06:43;20.05;;;10.27;;
23498;SDS011;11926;48.120;11.562;2023-04-15T12:09:31;11.10;;;5.03;;
23498;SDS011;11926;48.120;11.562;2023-04-15T12:12:26;9.85;;;4.25;;
23498;SDS011;11926;48.120;11.562;2023-04-15T12:15:15;6.63;;;3.80;;
23498;SDS011;11926;48.120;11.562;2023-04-15T12:18:03;6.43;;;3.75;;
23498;SDS011;11926;48.120;11.562;2023-04-15T12:20:52;9.50;;;3.67;;
23498;SDS011;11926;48.120;11.562;2023-04-15T12:23:50;9.15;;;4.20;;
23498;SDS011;11926;48.120;11.562;2023-04-15T12:26:45;7.82;;;3.67;;
23498;SDS011;11926;48.120;11.562;2023-04-15T12:29:39;7.63;;;3.60;;
23498;SDS011;11926;48.120;11.562;2023-04-15T12:32:29;7.88;;;4.10;;
23498;SDS011;11926;48.120;11.562;2023-04-15T12:35:20;7.60;;;3.80;;
23498;SDS011;11926;48.120;11.562;2023-04-15T12:38:10;7.30;;;3.97;;
23498;SDS011;11926;48.120;11.562;2023-04-15T12:40:59;10.60;;;4.28;;
23498;SDS011;11926;48.120;11.562;2023-04-15T12:43:47;5.65;;;3.22;;
23498;SDS011;11926;48.120;11.562;2023-04-15T12:46:34;7.28;;;3.78;;
23498;SDS011;11926;48.120;11.562;2023-04-15T12:49:21;5.50;;;3.67;;
23498;SDS011;11926;48.120;11.562;2023-04-15T12:52:08;7.13;;;3.22;;
23498;SDS011;11926;48.120;11.562;2023-04-15T12:54:55;5.28;;;2.42;;
23498;SDS011;11926;48.120;11.562;2023-04-15T12:57:43;5.50;;;2.75;;
23498;SDS011;11926;48.120;11.562;2023-04-15T13:00:32;7.82;;;2.67;;
23498;SDS011;11926;48.120;11.562;2023-04-15T13:03:20;5.05;;;2.50;;
23498;SDS011;11926;48.120;11.562;2023-04-15T13:06:08;6.18;;;2.25;;
23498;SDS011;11926;48.120;11.562;2023-04-15T13:08:55;4.88;;;2.40;;
23498;SDS011;11926;48.120;11.562;2023-04-15T13:11:43;6.57;;;2.53;;
23498;SDS011;11926;48.120;11.562;2023-04-15T13:14:32;7.72;;;2.60;;
23498;SDS011;11926;48.120;11.562;2023-04-15T13:17:19;5.13;;;2.05;;
23498;SDS011;11926;48.120;11.562;2023-04-15T13:20:07;5.18;;;2.67;;
23498;SDS011;11926;48.120;11.562;2023-04-15T13:22:54;6.07;;;2.22;;
23498;SDS011;11926;48.120;11.562;2023-04-15T13:25:42;8.15;;;3.03;;
23498;SDS011;11926;48.120;11.562;2023-04-15T13:28:29;5.85;;;2.80;;
23498;SDS011;11926;48.120;11.562;2023-04-15T13:31:18;6.50;;;3.03;;
23498;SDS011;11926;48.120;11.562;2023-04-15T13:34:05;5.10;;;2.85;;
23498;SDS011;11926;48.120;11.562;2023-04-15T13:36:52;7.75;;;2.83;;
23498;SDS011;11926;48.120;11.562;2023-04-15T13:39:39;5.75;;;2.88;;
23498;SDS011;11926;48.120;11.562;2023-04-15T13:42:26;5.70;;;2.80;;
23498;SDS011;11926;48.120;11.562;2023-04-15T13:45:13;8.60;;;3.13;;
23498;SDS011;11926;48.120;11.562;2023-04-15T13:48:02;7.70;;;3.75;;
23498;SDS011;11926;48.120;11.562;2023-04-15T13:50:49;9.30;;;3.55;;
23498;SDS011;11926;48.120;11.562;2023-04-15T13:53:43;5.60;;;3.38;;
23498;SDS011;11926;48.120;11.562;2023-04-15T13:56:30;8.75;;;4.93;;
23498;SDS011;11926;48.120;11.562;2023-04-15T13:59:19;7.90;;;4.03;;
23498;SDS011;11926;48.120;11.562;2023-04-15T14:02:06;6.57;;;3.83;;
23498;SDS011;11926;48.120;11.562;2023-04-15T14:04:55;5.93;;;3.30;;
23498;SDS011;11926;48.120;11.562;2023-04-15T14:07:43;5.95;;;3.47;;
23498;SDS011;11926;48.120;11.562;2023-04-15T14:10:31;8.35;;;3.40;;
23498;SDS011;11926;48.120;11.562;2023-04-15T14:13:18;7.35;;;3.13;;
23498;SDS011;11926;48.120;11.562;2023-04-15T14:16:06;5.45;;;3.50;;
23498;SDS011;11926;48.120;11.562;2023-04-15T14:18:55;9.32;;;3.20;;
23498;SDS011;11926;48.120;11.562;2023-04-15T14:21:47;5.30;;;3.10;;
23498;SDS011;11926;48.120;11.562;2023-04-15T14:24:34;11.65;;;3.13;;
23498;SDS011;11926;48.120;11.562;2023-04-15T14:27:23;12.10;;;3.13;;
23498;SDS011;11926;48.120;11.562;2023-04-15T14:30:12;5.18;;;2.40;;
23498;SDS011;11926;48.120;11.562;2023-04-15T14:33:00;5.40;;;2.65;;
23498;SDS011;11926;48.120;11.562;2023-04-15T14:35:49;5.65;;;2.97;;
23498;SDS011;11926;48.120;11.562;2023-04-15T14:38:39;6.78;;;2.70;;
23498;SDS011;11926;48.120;11.562;2023-04-15T14:41:26;4.85;;;2.45;;
23498;SDS011;11926;48.120;11.562;2023-04-15T14:44:14;7.03;;;2.88;;
23498;SDS011;11926;48.120;11.562;2023-04-15T14:47:01;7.35;;;3.10;;
23498;SDS011;11926;48.120;11.562;2023-04-15T14:49:49;7.25;;;3.05;;
23498;SDS011;11926;48.120;11.562;2023-04-15T14:52:37;5.90;;;2.70;;
23498;SDS011;11926;48.120;11.562;2023-04-15T14:55:25;6.90;;;3.13;;
23498;SDS011;11926;48.120;11.562;2023-04-15T14:58:13;5.30;;;2.88;;
23498;SDS011;11926;48.120;11.562;2023-04-15T15:01:00;5.03;;;3.00;;
23498;SDS011;11926;48.120;11.562;2023-04-15T15:03:48;6.22;;;3.05;;
23498;SDS011;11926;48.120;11.562;2023-04-15T15:06:36;6.78;;;3.38;;
23498;SDS011;11926;48.120;11.562;2023-04-15T15:09:22;6.32;;;4.20;;
23498;SDS011;11926;48.120;11.562;2023-04-15T15:12:11;8.95;;;3.70;;
23498;SDS011;11926;48.120;11.562;2023-04-15T15:14:58;5.80;;;3.47;;
23498;SDS011;11926;48.120;11.562;2023-04-15T15:17:49;7.03;;;3.85;;
23498;SDS011;11926;48.120;11.562;2023-04-15T15:20:36;6.50;;;3.80;;
23498;SDS011;11926;48.120;11.562;2023-04-15T15:23:23;5.45;;;3.58;;
23498;SDS011;11926;48.120;11.562;2023-04-15T15:26:11;7.78;;;3.97;;
23498;SDS011;11926;48.120;11.562;2023-04-15T15:28:59;8.63;;;3.38;;
23498;SDS011;11926;48.120;11.562;2023-04-15T15:31:46;4.97;;;3.47;;
23498;SDS011;11926;48.120;11.562;2023-04-15T15:34:34;6.32;;;3.47;;
23498;SDS011;11926;48.120;11.562;2023-04-15T15:37:21;5.18;;;3.53;;
23498;SDS011;11926;48.120;11.562;2023-04-15T15:40:09;8.32;;;4.60;;
23498;SDS011;11926;48.120;11.562;2023-04-15T15:42:57;6.45;;;4.28;;
23498;SDS011;11926;48.120;11.562;2023-04-15T15:45:46;7.25;;;4.10;;
23498;SDS011;11926;48.120;11.562;2023-04-15T15:48:39;6.70;;;4.50;;
23498;SDS011;11926;48.120;11.562;2023-04-15T15:51:26;7.78;;;4.53;;
23498;SDS011;11926;48.120;11.562;2023-04-15T15:54:14;8.57;;;5.10;;
23498;SDS011;11926;48.120;11.562;2023-04-15T15:57:02;7.78;;;4.50;;
23498;SDS011;11926;48.120;11.562;2023-04-15T15:59:53;7.55;;;4.45;;
23498;SDS011;11926;48.120;11.562;2023-04-15T16:02:58;11.20;;;4.72;;
23498;SDS011;11926;48.120;11.562;2023-04-15T16:05:52;6.55;;;4.57;;
23498;SDS011;11926;48.120;11.562;2023-04-15T16:08:39;6.90;;;4.25;;
23498;SDS011;11926;48.120;11.562;2023-04-15T16:11:30;11.07;;;4.53;;
23498;SDS011;11926;48.120;11.562;2023-04-15T16:14:20;5.35;;;3.83;;
23498;SDS011;11926;48.120;11.562;2023-04-15T16:17:09;8.23;;;4.53;;
23498;SDS011;11926;48.120;11.562;2023-04-15T16:19:58;6.57;;;4.07;;
23498;SDS011;11926;48.120;11.562;2023-04-15T16:22:50;6.70;;;3.92;;
23498;SDS011;11926;48.120;11.562;2023-04-15T16:25:39;7.88;;;4.80;;
23498;SDS011;11926;48.120;11.562;2023-04-15T16:28:28;8.43;;;4.18;;
23498;SDS011;11926;48.120;11.562;2023-04-15T16:31:16;9.43;;;4.25;;
23498;SDS011;11926;48.120;11.562;2023-04-15T16:34:03;8.43;;;3.63;;
23498;SDS011;11926;48.120;11.562;2023-04-15T16:36:55;5.80;;;4.18;;
23498;SDS011;11926;48.120;11.562;2023-04-15T16:39:43;6.03;;;3.40;;
23498;SDS011;11926;48.120;11.562;2023-04-15T16:42:30;9.13;;;4.65;;
23498;SDS011;11926;48.120;11.562;2023-04-15T16:45:17;6.95;;;3.53;;
23498;SDS011;11926;48.120;11.562;2023-04-15T16:48:05;4.78;;;3.05;;
23498;SDS011;11926;48.120;11.562;2023-04-15T16:50:52;7.43;;;3.42;;